createdAt,value
2019-02-05T00:00:37.315Z,102067.96
2019-02-05T00:03:11.242Z,102075.00
2019-02-05T00:05:39.896Z,102069.23
2019-02-05T00:08:08.527Z,102074.13
2019-02-05T00:10:37.079Z,102074.00
2019-02-05T00:13:05.679Z,102064.73
2019-02-05T00:15:34.431Z,102066.86
2019-02-05T00:18:03.070Z,102067.67
2019-02-05T00:20:31.563Z,102067.69
2019-02-05T00:23:00.030Z,102061.50
2019-02-05T00:25:28.529Z,102064.51
2019-02-05T00:27:56.993Z,102065.86
2019-02-05T00:30:25.936Z,102069.72
2019-02-05T00:32:54.397Z,102071.48
2019-02-05T00:35:22.920Z,102071.05
2019-02-05T00:37:51.450Z,102066.95
2019-02-05T00:40:20.100Z,102072.72
2019-02-05T00:42:48.572Z,102070.53
2019-02-05T00:45:20.750Z,102070.98
2019-02-05T00:47:49.378Z,102066.92
2019-02-05T00:50:19.544Z,102060.48
2019-02-05T00:52:48.008Z,102070.96
2019-02-05T00:55:19.221Z,102063.86
2019-02-05T00:57:48.044Z,102062.54
2019-02-05T01:00:25.861Z,102059.00
2019-02-05T01:02:54.692Z,102062.59
2019-02-05T01:05:23.419Z,102056.77
2019-02-05T01:07:52.211Z,102043.56
2019-02-05T01:10:22.122Z,102045.73
2019-02-05T01:12:51.637Z,102036.87
2019-02-05T01:15:22.466Z,102025.52
2019-02-05T01:17:51.671Z,102025.12
2019-02-05T01:20:21.580Z,102024.25
2019-02-05T01:22:50.880Z,102018.47
2019-02-05T01:25:20.449Z,102023.39
2019-02-05T01:27:49.443Z,102013.64
2019-02-05T01:30:23.471Z,102023.00
2019-02-05T01:32:52.490Z,102018.62
2019-02-05T01:35:21.583Z,102006.23
2019-02-05T01:37:50.127Z,102010.25
2019-02-05T01:40:21.289Z,102004.59
2019-02-05T01:42:49.755Z,102002.84
2019-02-05T01:45:19.870Z,102002.45
2019-02-05T01:47:48.634Z,101998.87
2019-02-05T01:50:22.404Z,101993.16
2019-02-05T01:52:50.950Z,101986.54
2019-02-05T01:55:19.882Z,101990.53
2019-02-05T01:57:48.528Z,101983.49
2019-02-05T02:00:25.616Z,101986.19
2019-02-05T02:02:54.169Z,101987.52
2019-02-05T02:05:22.778Z,101985.32
2019-02-05T02:07:51.404Z,101977.45
2019-02-05T02:10:23.057Z,101973.48
2019-02-05T02:12:51.983Z,101973.94
2019-02-05T02:15:20.533Z,101969.53
2019-02-05T02:17:49.289Z,101971.80
2019-02-05T02:20:20.159Z,101965.14
2019-02-05T02:22:48.977Z,101967.39
2019-02-05T02:25:18.066Z,101971.35
2019-02-05T02:27:47.307Z,101968.66
2019-02-05T02:30:25.006Z,101967.84
2019-02-05T02:32:53.492Z,101970.47
2019-02-05T02:35:21.960Z,101970.48
2019-02-05T02:37:50.924Z,101961.23
2019-02-05T02:40:19.377Z,101964.75
2019-02-05T02:42:47.935Z,101967.39
2019-02-05T02:45:16.684Z,101965.72
2019-02-05T02:47:45.618Z,101968.34
2019-02-05T02:50:21.767Z,101964.83
2019-02-05T02:52:51.180Z,101962.63
2019-02-05T02:55:19.900Z,101967.91
2019-02-05T02:57:48.379Z,101976.77
2019-02-05T03:00:39.027Z,101978.91
2019-02-05T03:03:07.887Z,101982.05
2019-02-05T03:05:36.414Z,101986.52
2019-02-05T03:08:04.965Z,101992.25
2019-02-05T03:10:33.422Z,101982.55
2019-02-05T03:13:01.910Z,101983.89
2019-02-05T03:15:30.353Z,101981.70
2019-02-05T03:17:58.827Z,101983.93
2019-02-05T03:20:27.367Z,101974.33
2019-02-05T03:22:56.196Z,101971.23
2019-02-05T03:25:26.277Z,101969.91
2019-02-05T03:27:55.208Z,101964.52
2019-02-05T03:30:25.615Z,101968.59
2019-02-05T03:32:55.920Z,101966.45
2019-02-05T03:35:24.617Z,101968.61
2019-02-05T03:37:53.276Z,101966.90
2019-02-05T03:40:30.602Z,101970.88
2019-02-05T03:42:59.414Z,101971.81
2019-02-05T03:45:29.484Z,101967.34
2019-02-05T03:48:02.267Z,101967.34
2019-02-05T03:50:33.712Z,101971.87
2019-02-05T03:53:23.000Z,101966.97
2019-02-05T03:56:09.388Z,101966.97
2019-02-05T03:58:43.514Z,101965.31
2019-02-05T04:01:20.727Z,101958.66
2019-02-05T04:04:11.680Z,101960.48
2019-02-05T04:06:48.762Z,101964.00
2019-02-05T04:09:26.331Z,101967.98
2019-02-05T04:12:15.912Z,101976.33
2019-02-05T04:14:47.525Z,101978.16
2019-02-05T04:17:19.046Z,101973.32
2019-02-05T04:19:59.154Z,101968.46
2019-02-05T04:22:33.432Z,101959.23
2019-02-05T04:25:21.279Z,101961.48
2019-02-05T04:28:01.783Z,101967.16
2019-02-05T04:30:51.463Z,101958.84
2019-02-05T04:33:42.348Z,101950.48
2019-02-05T04:36:19.639Z,101942.53
2019-02-05T04:39:12.542Z,101941.23
2019-02-05T04:41:47.012Z,101942.55
2019-02-05T04:44:30.822Z,101942.88
2019-02-05T04:47:05.041Z,101954.32
2019-02-05T04:49:51.626Z,101943.77
2019-02-05T04:52:55.304Z,101948.91
2019-02-05T04:55:32.287Z,101948.14
2019-02-05T04:58:06.510Z,101937.08
2019-02-05T05:00:56.189Z,101941.42
2019-02-05T05:03:45.994Z,101944.51
2019-02-05T05:06:46.593Z,101943.52
2019-02-05T05:09:36.017Z,101944.51
2019-02-05T05:12:04.653Z,101937.28
2019-02-05T05:14:33.145Z,101936.52
2019-02-05T05:17:01.991Z,101938.72
2019-02-05T05:19:30.489Z,101946.20
2019-02-05T05:21:59.292Z,101946.64
2019-02-05T05:24:27.777Z,101942.75
2019-02-05T05:26:56.418Z,101937.47
2019-02-05T05:29:25.151Z,101932.67
2019-02-05T05:31:53.870Z,101930.47
2019-02-05T05:34:22.533Z,101924.69
2019-02-05T05:36:49.887Z,101926.95
2019-02-05T05:39:19.011Z,101919.47
2019-02-05T05:41:47.675Z,101926.02
2019-02-05T05:44:16.180Z,101914.19
2019-02-05T05:46:44.637Z,101917.71
2019-02-05T05:49:13.133Z,101926.52
2019-02-05T05:51:41.972Z,101931.81
2019-02-05T05:54:10.462Z,101933.62
2019-02-05T05:56:38.921Z,101927.84
2019-02-05T05:59:07.623Z,101934.52
2019-02-05T06:01:36.073Z,101935.88
2019-02-05T06:04:05.408Z,101931.47
2019-02-05T06:06:33.977Z,101941.62
2019-02-05T06:09:04.644Z,101942.44
2019-02-05T06:11:33.266Z,101944.25
2019-02-05T06:14:01.744Z,101936.38
2019-02-05T06:16:30.247Z,101942.05
2019-02-05T06:18:58.737Z,101943.42
2019-02-05T06:21:27.210Z,101942.11
2019-02-05T06:23:55.936Z,101944.36
2019-02-05T06:26:24.481Z,101949.64
2019-02-05T06:28:52.994Z,101947.82
2019-02-05T06:31:21.465Z,101952.72
2019-02-05T06:33:49.946Z,101939.07
2019-02-05T06:36:18.406Z,101937.81
2019-02-05T06:38:46.889Z,101946.61
2019-02-05T06:41:15.353Z,101946.13
2019-02-05T06:43:43.836Z,101952.30
2019-02-05T06:46:12.287Z,101953.61
2019-02-05T06:48:40.774Z,101955.44
2019-02-05T06:51:09.245Z,101952.35
2019-02-05T06:53:37.723Z,101958.91
2019-02-05T06:56:06.361Z,101958.08
2019-02-05T06:58:45.734Z,101963.38
2019-02-05T07:01:05.382Z,101958.08
2019-02-05T07:03:33.873Z,101961.65
2019-02-05T07:06:02.337Z,101971.35
2019-02-05T07:08:30.803Z,101967.84
2019-02-05T07:10:59.282Z,101982.86
2019-02-05T07:13:27.748Z,101973.56
2019-02-05T07:15:56.725Z,101992.61
2019-02-05T07:18:25.188Z,101989.42
2019-02-05T07:20:53.671Z,101993.95
2019-02-05T07:23:22.138Z,101999.72
2019-02-05T07:25:50.623Z,102005.89
2019-02-05T07:28:19.086Z,102004.19
2019-02-05T07:30:47.579Z,102008.59
2019-02-05T07:33:16.406Z,102004.17
2019-02-05T07:35:44.905Z,102005.56
2019-02-05T07:38:13.368Z,102006.45
2019-02-05T07:40:41.841Z,102003.41
2019-02-05T07:43:10.296Z,102013.16
2019-02-05T07:45:38.780Z,102018.02
2019-02-05T07:48:07.312Z,102007.92
2019-02-05T07:50:35.807Z,102019.39
2019-02-05T07:53:05.175Z,102010.53
2019-02-05T07:55:33.667Z,102014.16
2019-02-05T07:58:02.137Z,102008.48
2019-02-05T08:00:31.166Z,102016.47
2019-02-05T08:02:59.702Z,102016.08
2019-02-05T08:05:30.623Z,102011.69
2019-02-05T08:07:59.326Z,102016.63
2019-02-05T08:10:28.638Z,102017.95
2019-02-05T08:12:57.091Z,102022.31
2019-02-05T08:15:30.532Z,102017.56
2019-02-05T08:17:58.986Z,102021.58
2019-02-05T08:20:27.642Z,102026.88
2019-02-05T08:22:56.274Z,102018.94
2019-02-05T08:25:24.753Z,102021.62
2019-02-05T08:27:53.581Z,102022.08
2019-02-05T08:30:28.123Z,102027.02
2019-02-05T08:32:56.587Z,102026.05
2019-02-05T08:35:25.065Z,102024.81
2019-02-05T08:37:53.554Z,102033.70
2019-02-05T08:40:23.365Z,102031.05
2019-02-05T08:42:51.897Z,102024.08
2019-02-05T08:45:23.668Z,102029.78
2019-02-05T08:47:52.140Z,102033.34
2019-02-05T08:50:23.348Z,102028.94
2019-02-05T08:52:51.918Z,102038.70
2019-02-05T08:55:21.644Z,102044.95
2019-02-05T08:57:58.379Z,102041.88
2019-02-05T09:00:32.443Z,102039.75
2019-02-05T09:03:01.251Z,102031.77
2019-02-05T09:05:29.716Z,102050.34
2019-02-05T09:07:58.283Z,102046.47
2019-02-05T09:10:32.095Z,102045.58
2019-02-05T09:13:00.858Z,102049.99
2019-02-05T09:15:29.935Z,102048.27
2019-02-05T09:17:58.992Z,102052.28
2019-02-05T09:20:27.454Z,102048.76
2019-02-05T09:22:56.384Z,102059.39
2019-02-05T09:25:24.939Z,102057.15
2019-02-05T09:27:53.469Z,102057.19
2019-02-05T09:30:24.670Z,102061.25
2019-02-05T09:32:55.988Z,102056.39
2019-02-05T09:35:24.445Z,102061.73
2019-02-05T09:37:52.926Z,102074.14
2019-02-05T09:40:27.062Z,102059.12
2019-02-05T09:42:55.714Z,102059.59
2019-02-05T09:45:25.005Z,102062.29
2019-02-05T09:47:53.813Z,102061.88
2019-02-05T09:50:22.527Z,102067.19
2019-02-05T09:52:51.259Z,102073.81
2019-02-05T09:55:21.266Z,102077.13
2019-02-05T09:57:49.894Z,102071.27
2019-02-05T10:00:30.201Z,102080.55
2019-02-05T10:02:59.024Z,102084.53
2019-02-05T10:05:32.923Z,102085.41
2019-02-05T10:08:01.412Z,102097.82
2019-02-05T10:10:30.028Z,102093.80
2019-02-05T10:12:58.705Z,102095.61
2019-02-05T10:15:30.031Z,102094.73
2019-02-05T10:17:58.897Z,102091.23
2019-02-05T10:20:27.703Z,102085.45
2019-02-05T10:22:57.836Z,102079.70
2019-02-05T10:25:26.490Z,102086.07
2019-02-05T10:27:55.044Z,102079.81
2019-02-05T10:30:29.337Z,102078.96
2019-02-05T10:32:58.010Z,102085.15
2019-02-05T10:35:26.559Z,102081.14
2019-02-05T10:37:55.121Z,102093.07
2019-02-05T10:40:25.093Z,102086.88
2019-02-05T10:42:53.850Z,102082.06
2019-02-05T10:45:26.869Z,102085.62
2019-02-05T10:47:56.976Z,102091.41
2019-02-05T10:50:25.886Z,102089.20
2019-02-05T10:52:54.430Z,102093.58
2019-02-05T10:55:23.629Z,102083.01
2019-02-05T10:57:54.025Z,102083.45
2019-02-05T11:00:26.126Z,102079.98
2019-02-05T11:02:55.729Z,102081.30
2019-02-05T11:05:26.616Z,102080.42
2019-02-05T11:07:55.208Z,102078.69
2019-02-05T11:10:23.668Z,102076.91
2019-02-05T11:12:52.321Z,102077.83
2019-02-05T11:15:25.865Z,102075.14
2019-02-05T11:17:54.350Z,102071.61
2019-02-05T11:20:24.864Z,102068.55
2019-02-05T11:22:53.515Z,102071.64
2019-02-05T11:25:22.324Z,102068.58
2019-02-05T11:27:50.959Z,102066.39
2019-02-05T11:30:22.134Z,102065.98
2019-02-05T11:32:52.853Z,102068.22
2019-02-05T11:35:20.821Z,102070.84
2019-02-05T11:37:50.172Z,102082.39
2019-02-05T11:40:22.020Z,102078.85
2019-02-05T11:42:50.519Z,102080.63
2019-02-05T11:45:20.091Z,102084.16
2019-02-05T11:47:49.627Z,102085.08
2019-02-05T11:50:19.465Z,102077.61
2019-02-05T11:52:48.139Z,102081.12
2019-02-05T11:55:22.250Z,102080.68
2019-02-05T11:57:50.795Z,102079.80
2019-02-05T12:00:40.802Z,102073.18
2019-02-05T12:03:10.531Z,102080.23
2019-02-05T12:05:39.355Z,102081.58
2019-02-05T12:08:08.271Z,102085.52
2019-02-05T12:10:36.743Z,102082.94
2019-02-05T12:13:05.408Z,102083.38
2019-02-05T12:15:34.060Z,102080.75
2019-02-05T12:18:03.432Z,102079.87
2019-02-05T12:20:31.903Z,102073.63
2019-02-05T12:23:00.913Z,102070.16
2019-02-05T12:25:29.389Z,102075.47
2019-02-05T12:27:57.873Z,102071.52
2019-02-05T12:30:43.906Z,102067.97
2019-02-05T12:33:02.348Z,102077.28
2019-02-05T12:35:30.889Z,102073.30
2019-02-05T12:37:59.852Z,102080.38
2019-02-05T12:40:28.469Z,102075.48
2019-02-05T12:42:57.093Z,102079.51
2019-02-05T12:45:36.306Z,102077.27
2019-02-05T12:48:05.622Z,102078.19
2019-02-05T12:50:42.095Z,102072.03
2019-02-05T12:53:10.660Z,102074.23
2019-02-05T12:55:39.253Z,102071.14
2019-02-05T12:58:08.108Z,102072.02
2019-02-05T13:00:39.634Z,102079.16
2019-02-05T13:03:09.065Z,102076.50
2019-02-05T13:05:38.173Z,102079.57
2019-02-05T13:08:07.201Z,102078.29
2019-02-05T13:10:38.340Z,102073.83
2019-02-05T13:13:07.868Z,102071.20
2019-02-05T13:15:36.572Z,102074.76
2019-02-05T13:18:06.769Z,102072.95
2019-02-05T13:20:35.478Z,102076.52
2019-02-05T13:23:05.292Z,102078.72
2019-02-05T13:25:34.523Z,102076.54
2019-02-05T13:28:03.257Z,102082.27
2019-02-05T13:30:33.293Z,102088.92
2019-02-05T13:33:02.217Z,102092.47
2019-02-05T13:35:31.519Z,102087.59
2019-02-05T13:38:00.759Z,102087.08
2019-02-05T13:40:30.290Z,102087.97
2019-02-05T13:43:00.289Z,102090.19
2019-02-05T13:45:31.932Z,102094.66
2019-02-05T13:48:00.519Z,102095.08
2019-02-05T13:50:33.513Z,102100.00
2019-02-05T13:53:01.810Z,102093.77
2019-02-05T13:55:32.894Z,102095.09
2019-02-05T13:58:01.704Z,102098.59
2019-02-05T14:00:32.941Z,102104.33
2019-02-05T14:03:01.429Z,102098.65
2019-02-05T14:05:29.926Z,102098.59
2019-02-05T14:07:58.562Z,102099.05
2019-02-05T14:10:32.369Z,102099.52
2019-02-05T14:13:00.894Z,102100.84
2019-02-05T14:15:34.291Z,102105.69
2019-02-05T14:18:03.218Z,102104.80
2019-02-05T14:20:31.700Z,102106.11
2019-02-05T14:23:00.348Z,102112.74
2019-02-05T14:25:28.838Z,102104.37
2019-02-05T14:27:57.300Z,102099.95
2019-02-05T14:30:34.351Z,102105.28
2019-02-05T14:33:03.533Z,102107.50
2019-02-05T14:35:32.027Z,102117.21
2019-02-05T14:38:00.927Z,102112.79
2019-02-05T14:40:29.489Z,102115.91
2019-02-05T14:42:58.082Z,102122.50
2019-02-05T14:45:26.638Z,102128.27
2019-02-05T14:47:55.095Z,102130.02
2019-02-05T14:50:28.903Z,102127.83
2019-02-05T14:52:57.610Z,102131.81
2019-02-05T14:55:26.173Z,102127.84
2019-02-05T14:57:54.810Z,102127.81
2019-02-05T15:00:31.777Z,102128.70
2019-02-05T15:03:02.186Z,102134.92
2019-02-05T15:05:30.889Z,102139.73
2019-02-05T15:07:59.343Z,102141.05
2019-02-05T15:10:27.923Z,102141.92
2019-02-05T15:12:56.560Z,102144.64
2019-02-05T15:15:29.035Z,102137.55
2019-02-05T15:17:58.250Z,102144.63
2019-02-05T15:20:32.100Z,102148.56
2019-02-05T15:23:00.923Z,102144.61
2019-02-05T15:25:29.680Z,102151.25
2019-02-05T15:27:58.923Z,102146.38
2019-02-05T15:30:31.087Z,102145.50
2019-02-05T15:33:06.933Z,102147.23
2019-02-05T15:35:35.629Z,102150.81
2019-02-05T15:38:04.358Z,102149.01
2019-02-05T15:40:33.020Z,102151.64
2019-02-05T15:43:01.884Z,102153.41
2019-02-05T15:45:30.376Z,102150.73
2019-02-05T15:47:58.920Z,102156.51
2019-02-05T15:50:27.419Z,102147.19
2019-02-05T15:52:55.873Z,102151.23
2019-02-05T15:55:24.538Z,102148.93
2019-02-05T15:57:53.004Z,102150.76
2019-02-05T16:00:25.769Z,102153.41
2019-02-05T16:02:54.305Z,102147.16
2019-02-05T16:05:22.797Z,102152.47
2019-02-05T16:07:51.264Z,102147.58
2019-02-05T16:10:24.213Z,102157.81
2019-02-05T16:12:52.679Z,102155.13
2019-02-05T16:15:21.165Z,102160.44
2019-02-05T16:17:49.695Z,102153.36
2019-02-05T16:20:20.298Z,102159.14
2019-02-05T16:22:50.195Z,102165.75
2019-02-05T16:25:19.133Z,102163.95
2019-02-05T16:27:47.607Z,102163.06
2019-02-05T16:30:28.040Z,102164.84
2019-02-05T16:32:56.504Z,102166.16
2019-02-05T16:35:25.127Z,102168.38
2019-02-05T16:37:54.742Z,102169.26
2019-02-05T16:40:35.022Z,102172.36
2019-02-05T16:43:03.704Z,102171.00
2019-02-05T16:45:32.735Z,102173.24
2019-02-05T16:48:01.432Z,102177.66
2019-02-05T16:50:42.292Z,102176.75
2019-02-05T16:53:11.232Z,102178.08
2019-02-05T16:55:39.725Z,102175.87
2019-02-05T16:58:08.195Z,102183.38
2019-02-05T17:00:38.023Z,102180.77
2019-02-05T17:03:07.322Z,102180.31
2019-02-05T17:05:38.349Z,102181.20
2019-02-05T17:08:07.291Z,102184.27
2019-02-05T17:10:35.773Z,102188.66
2019-02-05T17:13:05.292Z,102191.28
2019-02-05T17:15:33.772Z,102187.78
2019-02-05T17:18:04.146Z,102193.13
2019-02-05T17:20:33.860Z,102189.52
2019-02-05T17:23:02.540Z,102198.33
2019-02-05T17:25:31.026Z,102205.00
2019-02-05T17:28:01.657Z,102197.55
2019-02-05T17:30:35.303Z,102205.03
2019-02-05T17:33:04.375Z,102205.88
2019-02-05T17:35:35.382Z,102208.57
2019-02-05T17:38:03.371Z,102206.33
2019-02-05T17:40:31.835Z,102201.45
2019-02-05T17:43:00.327Z,102192.20
2019-02-05T17:45:31.520Z,102189.55
2019-02-05T17:48:02.282Z,102196.59
2019-02-05T17:50:30.749Z,102195.27
2019-02-05T17:52:59.522Z,102202.41
2019-02-05T17:55:27.967Z,102199.28
2019-02-05T17:57:56.509Z,102200.16
2019-02-05T18:00:29.470Z,102203.70
2019-02-05T18:02:58.091Z,102199.21
2019-02-05T18:05:26.637Z,102212.55
2019-02-05T18:07:55.683Z,102210.31
2019-02-05T18:10:26.929Z,102211.63
2019-02-05T18:12:55.425Z,102209.39
2019-02-05T18:15:26.808Z,102210.72
2019-02-05T18:17:55.525Z,102212.08
2019-02-05T18:20:24.003Z,102211.63
2019-02-05T18:22:52.868Z,102214.73
2019-02-05T18:25:21.782Z,102206.30
2019-02-05T18:27:57.848Z,102207.14
2019-02-05T18:30:28.656Z,102216.47
2019-02-05T18:33:04.983Z,102206.70
2019-02-05T18:35:28.008Z,102211.53
2019-02-05T18:37:56.965Z,102207.11
2019-02-05T18:40:27.164Z,102208.02
2019-02-05T18:42:55.742Z,102205.41
2019-02-05T18:45:24.279Z,102206.66
2019-02-05T18:47:52.841Z,102207.59
2019-02-05T18:50:23.842Z,102208.44
2019-02-05T18:52:52.344Z,102212.48
2019-02-05T18:55:22.136Z,102215.55
2019-02-05T18:57:50.636Z,102217.76
2019-02-05T19:00:27.976Z,102216.39
2019-02-05T19:02:56.527Z,102219.05
2019-02-05T19:05:25.541Z,102220.85
2019-02-05T19:07:54.277Z,102217.72
2019-02-05T19:10:25.558Z,102219.05
2019-02-05T19:12:54.217Z,102214.66
2019-02-05T19:15:26.344Z,102221.30
2019-02-05T19:17:54.871Z,102217.72
2019-02-05T19:20:28.461Z,102218.16
2019-02-05T19:22:56.938Z,102215.14
2019-02-05T19:25:33.497Z,102215.55
2019-02-05T19:28:01.987Z,102217.80
2019-02-05T19:30:32.098Z,102215.95
2019-02-05T19:33:01.040Z,102217.72
2019-02-05T19:35:29.498Z,102219.93
2019-02-05T19:37:57.999Z,102219.05
2019-02-05T19:40:26.519Z,102218.61
2019-02-05T19:42:55.016Z,102218.61
2019-02-05T19:45:33.691Z,102227.86
2019-02-05T19:48:03.823Z,102225.72
2019-02-05T19:50:32.361Z,102216.43
2019-02-05T19:53:00.845Z,102226.56
2019-02-05T19:55:29.315Z,102232.80
2019-02-05T19:57:58.210Z,102228.78
2019-02-05T20:00:26.679Z,102228.34
2019-02-05T20:02:55.646Z,102223.47
2019-02-05T20:05:24.226Z,102223.47
2019-02-05T20:07:54.425Z,102227.01
2019-02-05T20:10:23.060Z,102227.86
2019-02-05T20:12:51.560Z,102230.14
2019-02-05T20:15:20.069Z,102226.97
2019-02-05T20:17:48.592Z,102225.20
2019-02-05T20:20:19.270Z,102230.14
2019-02-05T20:22:48.268Z,102230.59
2019-02-05T20:25:17.958Z,102230.14
2019-02-05T20:27:46.502Z,102225.28
2019-02-05T20:30:26.098Z,102232.76
2019-02-05T20:32:54.606Z,102234.05
2019-02-05T20:35:23.084Z,102230.52
2019-02-05T20:37:52.118Z,102235.00
2019-02-05T20:40:25.408Z,102233.13
2019-02-05T20:42:54.188Z,102234.05
2019-02-05T20:45:22.775Z,102231.91
2019-02-05T20:47:51.257Z,102238.98
2019-02-05T20:50:21.221Z,102237.18
2019-02-05T20:52:49.882Z,102245.95
2019-02-05T20:55:22.688Z,102237.14
2019-02-05T20:57:52.121Z,102242.48
2019-02-05T21:00:23.229Z,102240.64
2019-02-05T21:02:51.874Z,102247.35
2019-02-05T21:05:21.584Z,102246.95
2019-02-05T21:07:50.397Z,102249.60
2019-02-05T21:10:22.083Z,102253.62
2019-02-05T21:12:50.721Z,102259.41
2019-02-05T21:15:20.092Z,102250.56
2019-02-05T21:17:48.652Z,102253.62
2019-02-05T21:20:29.182Z,102253.63
2019-02-05T21:22:53.323Z,102254.09
2019-02-05T21:25:23.747Z,102257.23
2019-02-05T21:27:52.226Z,102262.09
2019-02-05T21:30:22.926Z,102258.56
2019-02-05T21:32:52.022Z,102260.36
2019-02-05T21:35:20.504Z,102270.95
2019-02-05T21:37:48.972Z,102277.10
2019-02-05T21:40:25.664Z,102276.17
2019-02-05T21:42:54.307Z,102272.64
2019-02-05T21:45:27.951Z,102276.14
2019-02-05T21:47:56.429Z,102273.48
2019-02-05T21:50:25.064Z,102279.19
2019-02-05T21:52:53.598Z,102283.25
2019-02-05T21:55:24.476Z,102285.91
2019-02-05T21:57:53.009Z,102279.68
2019-02-05T22:00:32.286Z,102279.67
2019-02-05T22:03:00.845Z,102279.19
2019-02-05T22:05:31.254Z,102281.84
2019-02-05T22:08:00.384Z,102287.59
2019-02-05T22:10:28.846Z,102284.42
2019-02-05T22:12:57.481Z,102281.37
2019-02-05T22:15:26.349Z,102282.21
2019-02-05T22:17:55.204Z,102287.59
2019-02-05T22:20:29.991Z,102282.33
2019-02-05T22:22:58.523Z,102282.73
2019-02-05T22:25:32.281Z,102284.98
2019-02-05T22:28:01.735Z,102289.33
2019-02-05T22:30:32.806Z,102280.52
2019-02-05T22:33:01.558Z,102286.23
2019-02-05T22:35:30.282Z,102279.16
2019-02-05T22:37:58.831Z,102281.37
2019-02-05T22:40:28.165Z,102277.83
2019-02-05T22:42:57.076Z,102275.98
2019-02-05T22:45:30.249Z,102280.44
2019-02-05T22:47:58.720Z,102274.25
2019-02-05T22:50:29.693Z,102277.75
2019-02-05T22:52:58.211Z,102276.02
2019-02-05T22:55:26.705Z,102275.09
2019-02-05T22:57:55.320Z,102279.11
2019-02-05T23:00:31.328Z,102276.91
2019-02-05T23:02:59.796Z,102277.30
2019-02-05T23:06:01.878Z,102269.74
2019-02-05T23:08:30.585Z,102273.36
2019-02-05T23:11:07.413Z,102268.02
2019-02-05T23:13:36.225Z,102269.79
2019-02-05T23:16:05.577Z,102284.91
2019-02-05T23:18:34.134Z,102285.34
2019-02-05T23:21:02.792Z,102272.97
2019-02-05T23:23:31.259Z,102281.36
2019-02-05T23:25:59.859Z,102275.13
2019-02-05T23:28:28.326Z,102276.02
2019-02-05T23:30:56.827Z,102277.42
2019-02-05T23:33:25.298Z,102276.46
2019-02-05T23:35:53.779Z,102278.23
2019-02-05T23:38:29.658Z,102277.75
2019-02-05T23:40:52.534Z,102280.84
2019-02-05T23:43:20.997Z,102287.03
2019-02-05T23:46:00.936Z,102286.98
2019-02-05T23:48:20.337Z,102288.31
2019-02-05T23:50:48.819Z,102287.03
2019-02-05T23:53:17.768Z,102285.75
2019-02-05T23:55:48.207Z,102285.75
2019-02-05T23:58:17.270Z,102288.84
